Flight Track Log - Related Links

Times and Time Zones

All times are in EDT time to prevent confusion due to time zone crossing. See the SWA1188 flight status page for this flight to view local times or setup timezone preferences in your user account.


Time Position Orientation Groundspeed Altitude Reporting Facility
EDT Latitude Longitude Course Direction KTS MPH feet Rate Location/Type
Sat 09:01:37 PM 39.1667 -76.7500 67° East 208 239 3,300  Level Potomac TRACON
Sat 09:03:57 PM 39.0778 -76.6236 132° Southeast 263 303 9,500 2,790 Climbing Washington Center
Sat 09:04:57 PM 39.0994 -76.5197 75° East 246 283 12,600 3,203 Climbing Washington Center
Sat 09:05:55 PM 39.0606 -76.4042 113° Southeast 305 351 15,800 3,153 Climbing Washington Center
Sat 09:06:55 PM 39.0469 -76.2811 98° East 323 372 18,800 2,600 Climbing Washington Center
Sat 09:07:00 PM 39.3836 -76.0160 67° East  Level FlightAware Approximate
Sat 09:07:55 PM 39.0642 -76.1478 81° East 364 419 21,000  Level Washington Center
Sat 09:08:55 PM 39.1208 -76.0303 58° Northeast 364 419 22,500 992 Climbing Washington Center
Sat 09:09:56 PM 39.1839 -75.9022 58° Northeast 382 440 23,000 246 Climbing Washington Center
Sat 09:10:57 PM 39.2592 -75.7925 48° Northeast 398 458 23,000 655 Level Washington Center
Sat 09:11:55 PM 39.3406 -75.6881 45° Northeast 408 470 24,300 1,525 Climbing Washington Center
Sat 09:12:55 PM 39.4219 -75.5861 44° Northeast 403 464 26,000 1,426 Climbing Washington Center
Sat 09:13:57 PM 39.4989 -75.4839 46° Northeast 398 458 27,200 1,154 Climbing Washington Center
Sat 09:15:31 PM 39.6189 -75.3281 45° Northeast 387 445 29,000 701 Climbing New York Center
Sat 09:16:31 PM 39.6936 -75.2278 46° Northeast 382 440 29,000  Level New York Center
Sat 09:17:31 PM 39.7711 -75.1111 49° Northeast 382 440 29,000  Level New York Center
Sat 09:18:29 PM 39.8514 -75.0189 41° Northeast 382 440 29,000  Level New York Center
Sat 09:19:30 PM 39.9256 -74.9314 42° Northeast 388 447 29,000  Level New York Center
Sat 09:20:29 PM 40.0169 -74.8231 42° Northeast 393 452 29,000  Level New York Center
Sat 09:21:31 PM 40.0972 -74.7300 42° Northeast 388 447 29,000  Level New York Center
Sat 09:22:31 PM 40.1775 -74.6311 43° Northeast 388 447 29,000  Level New York Center
Sat 09:23:29 PM 40.2539 -74.5294 45° Northeast 388 447 29,000  Level New York Center
Sat 09:24:29 PM 40.3339 -74.4303 43° Northeast 382 440 29,000  Level New York Center
Sat 09:25:29 PM 40.4119 -74.3336 43° Northeast 382 440 29,000  Level New York Center
Sat 09:26:30 PM 40.4942 -74.2342 43° Northeast 387 445 29,000  Level New York Center
Sat 09:27:29 PM 40.5719 -74.1344 44° Northeast 387 445 29,000 -1,300 Level New York Center
Sat 09:29:53 PM 40.7547 -73.9086 43° Northeast 371 427 24,600 -1,471 Descending Boston Center
Sat 09:30:53 PM 40.8119 -73.8386 43° Northeast 366 421 24,000 -300 Descending Boston Center
Sat 09:31:53 PM 40.8967 -73.7361 42° Northeast 356 410 24,000  Level Boston Center
Sat 09:32:53 PM 40.9686 -73.6414 45° Northeast 350 403 24,000 -250 Level Boston Center
Sat 09:33:53 PM 41.0467 -73.5519 41° Northeast 362 417 23,500 -650 Descending Boston Center
Sat 09:34:53 PM 41.1197 -73.5256 15° North 355 409 22,700 -1,000 Descending Boston Center
Sat 09:35:53 PM 41.2319 -73.5469 352° North 323 372 21,500 -1,100 Descending Boston Center
Sat 09:36:53 PM 41.3236 -73.5594 354° North 323 372 20,500 -750 Descending Boston Center
Sat 09:37:53 PM 41.4028 -73.5747 352° North 328 377 20,000 -250 Descending Boston Center
Sat 09:38:53 PM 41.4942 -73.5875 354° North 328 377 20,000  Level Boston Center
Sat 09:39:53 PM 41.5919 -73.6086 351° North 328 377 20,000  Level Boston Center
Sat 09:40:53 PM 41.6814 -73.6214 354° North 323 372 20,000  Level Boston Center
Sat 09:41:53 PM 41.7708 -73.6397 351° North 323 372 20,000  Level Boston Center
Sat 09:42:29 PM 41.8231 -73.6464 355° North 328 377 20,000 -111 Level Boston Center
Sat 09:42:47 PM 41.8519 -73.6497 355° North 331 381 19,900 -1,367 Descending Boston Center
Sat 09:43:48 PM 41.9414 -73.6681 351° North 317 365 18,200 -1,884 Descending Boston Center
Sat 09:44:48 PM 42.0267 -73.6808 354° North 309 356 16,100 -2,033 Descending Boston Center
Sat 09:45:49 PM 42.1122 -73.6939 354° North 313 360 14,100 -1,983 Descending Boston Center
Sat 09:46:49 PM 42.1972 -73.7125 351° North 314 361 12,100 -1,785 Descending Boston Center
Sat 09:47:50 PM 42.2806 -73.7281 352° North 302 348 10,500 -1,525 Descending Boston Center
Sat 09:48:51 PM 42.3492 -73.7492 347° North 240 276 9,000 -1,835 Descending Boston Center
Sat 09:49:51 PM 42.4178 -73.7647 350° North 227 261 6,800 -2,296 Descending Boston Center
Sat 09:50:46 PM 42.4656 -73.7769 349° North 205 236 4,600 -2,191 Descending Boston Center
Sat 09:51:46 PM 42.5153 -73.7894 350° North 176 203 2,600 -992 Descending Boston Center
Sat 09:52:47 PM 42.5653 -73.8017 350° North 167 192 2,600  Level Boston Center
Sat 09:53:48 PM 42.6111 -73.8028 359° North 171 197 2,600 -397 Level Boston Center
Sat 09:54:48 PM 42.6589 -73.8036 359° North 168 193 1,800 -694 Descending Boston Center
Sat 09:55:49 PM 42.6903 -73.8044 359° North 108 124 1,200 -595 Descending Boston Center
Sat 09:56:49 PM 42.7236 -73.8081 355° North 115 132 600 -600 Descending Boston Center
Sat 09:58:00 PM 42.7333 -73.8000 350° North  Level FlightAware Approximate
Sat 10:05:00 PM 42.7491 -73.8020 350° North  Level Estimated
Sat 10:06:00 PM 42.7491 -73.8020 350° North  Level Estimated
Sat 10:07:00 PM 42.7491 -73.8020 350° North  Level Estimated

Login

Don't have an account? Register now (free) for customized features, flight alerts, and more!